Time;durP1;ratioP1;P1;durP2;ratioP2;P2;SDS_P1;SDS_P2;PMS_P1;PMS_P2;Temp;Humidity;BMP_temperature;BMP_pressure;BME280_temperature;BME280_humidity;BME280_pressure;Samples;Min_cycle;Max_cycle;Signal;HPM_P1;HPM_P2
2021/12/20 00:01:24;;;;;;;7.50;3.33;;;;;;;5.07;87.98;102708.28;4927376;28;20037;-73
2021/12/20 00:03:49;;;;;;;16.35;3.42;;;;;;;5.06;88.11;102722.09;4937786;29;20038;-73
2021/12/20 00:06:15;;;;;;;12.82;2.90;;;;;;;5.05;89.16;102720.31;4951384;28;20041;-73
2021/12/20 00:08:40;;;;;;;7.18;2.15;;;;;;;5.03;89.35;102719.38;4940432;28;20038;-73
2021/12/20 00:11:05;;;;;;;6.30;3.10;;;;;;;5.01;89.46;102721.91;4940931;28;20035;-73
2021/12/20 00:13:31;;;;;;;7.97;3.67;;;;;;;5.02;89.55;102717.59;4923205;28;20031;-72
2021/12/20 00:15:56;;;;;;;12.48;3.58;;;;;;;5.01;89.31;102721.00;4956591;28;20026;-72
2021/12/20 00:18:22;;;;;;;9.30;3.15;;;;;;;4.99;89.32;102723.53;4936652;28;20395;-73
2021/12/20 00:20:50;;;;;;;11.52;3.38;;;;;;;4.97;89.69;102714.81;4939900;28;20154;-73
2021/12/20 00:23:15;;;;;;;10.02;3.30;;;;;;;4.97;89.68;102716.50;4918370;28;20045;-73
2021/12/20 00:25:42;;;;;;;13.05;3.10;;;;;;;4.96;89.58;102706.97;4938536;28;20026;-72
2021/12/20 00:28:07;;;;;;;13.18;3.50;;;;;;;4.96;89.48;102718.22;4957161;28;20019;-72
2021/12/20 00:30:33;;;;;;;9.93;3.53;;;;;;;4.95;89.90;102706.03;4940884;28;20027;-73
2021/12/20 00:33:00;;;;;;;12.82;3.50;;;;;;;4.94;89.04;102713.78;4950136;28;20034;-73
2021/12/20 00:35:26;;;;;;;15.52;3.38;;;;;;;4.94;88.65;102712.09;4938716;28;20550;-73
2021/12/20 00:40:37;;;;;;;15.65;3.78;;;;;;;4.94;88.36;102724.16;4980999;28;20045;-73
2021/12/20 00:43:04;;;;;;;7.93;2.90;;;;;;;4.92;88.35;102713.72;4973513;28;20125;-73
2021/12/20 00:45:35;;;;;;;10.25;2.88;;;;;;;4.91;88.44;102705.88;4937903;28;20039;-73
2021/12/20 00:48:02;;;;;;;11.35;3.50;;;;;;;4.90;88.28;102706.69;4955781;28;20190;-73
2021/12/20 00:50:28;;;;;;;7.32;3.17;;;;;;;4.90;88.48;102709.28;4948888;28;20046;-73
2021/12/20 00:52:54;;;;;;;22.38;3.63;;;;;;;4.88;88.16;102714.41;4955145;28;20430;-73
2021/12/20 00:55:26;;;;;;;20.05;4.20;;;;;;;4.88;87.93;102697.94;4963422;28;20177;-73
2021/12/20 00:57:54;;;;;;;16.27;3.45;;;;;;;4.85;87.94;102699.56;4957638;28;20089;-73
2021/12/20 01:00:28;;;;;;;9.50;3.42;;;;;;;4.84;87.95;102708.22;4936596;28;20039;-73
2021/12/20 01:02:54;;;;;;;12.70;3.03;;;;;;;4.85;88.05;102711.69;4950507;28;20031;-73
2021/12/20 01:05:22;;;;;;;12.32;3.55;;;;;;;4.86;88.35;102716.94;4956037;28;20023;-73
2021/12/20 01:07:50;;;;;;;12.30;4.45;;;;;;;4.83;88.07;102716.81;4956415;28;20037;-72
2021/12/20 01:10:17;;;;;;;17.77;3.70;;;;;;;4.83;87.86;102709.03;4971773;28;20031;-73
2021/12/20 01:12:48;;;;;;;14.43;3.10;;;;;;;4.82;87.71;102712.44;4988499;28;20066;-73
2021/12/20 01:15:16;;;;;;;22.45;3.92;;;;;;;4.83;87.61;102713.34;4940309;28;20173;-73
2021/12/20 01:17:42;;;;;;;10.48;2.90;;;;;;;4.81;87.31;102713.28;4955610;28;20081;-73
2021/12/20 01:20:09;;;;;;;10.15;4.00;;;;;;;4.81;87.71;102702.91;4923362;28;20129;-73
2021/12/20 01:22:34;;;;;;;10.88;2.15;;;;;;;4.82;87.54;102703.78;4961813;28;20045;-73
2021/12/20 01:25:00;;;;;;;11.13;2.90;;;;;;;4.80;86.95;102706.31;4957864;28;20503;-73
2021/12/20 01:27:27;;;;;;;14.80;3.58;;;;;;;4.79;86.99;102706.25;4968948;28;20043;-73
2021/12/20 01:29:55;;;;;;;17.90;3.58;;;;;;;4.78;86.59;102707.94;4938656;28;20030;-73
2021/12/20 01:32:22;;;;;;;16.88;3.60;;;;;;;4.77;86.65;102706.19;4940850;28;20114;-73
2021/12/20 01:34:50;;;;;;;11.52;3.53;;;;;;;4.75;86.46;102707.81;4923702;28;20177;-73
2021/12/20 01:37:16;;;;;;;13.88;3.33;;;;;;;4.74;86.54;102708.66;4954074;28;20027;-73
2021/12/20 01:39:42;;;;;;;12.68;3.30;;;;;;;4.73;86.31;102699.09;4971502;28;20050;-73
2021/12/20 01:42:08;;;;;;;19.50;4.10;;;;;;;4.72;86.41;102697.28;4937737;28;20027;-73
2021/12/20 01:44:34;;;;;;;12.75;4.30;;;;;;;4.71;86.31;102695.50;4937842;28;20050;-72
2021/12/20 01:47:07;;;;;;;22.98;4.75;;;;;;;4.70;86.10;102701.56;4935659;28;20042;-72
2021/12/20 01:49:40;;;;;;;19.63;4.45;;;;;;;4.68;86.17;102698.00;4954510;28;20031;-73
2021/12/20 01:52:13;;;;;;;10.80;3.13;;;;;;;4.67;86.25;102704.91;4943915;28;20518;-73
2021/12/20 01:54:39;;;;;;;23.55;3.92;;;;;;;4.67;86.15;102698.84;4954689;28;20130;-73
2021/12/20 01:57:04;;;;;;;14.65;3.50;;;;;;;4.66;85.83;102694.44;4970310;28;20480;-73
2021/12/20 01:59:30;;;;;;;12.25;3.72;;;;;;;4.65;86.27;102696.13;4970732;28;20019;-73
2021/12/20 02:01:56;;;;;;;17.92;3.72;;;;;;;4.65;85.96;102696.13;4933910;28;20035;-73
2021/12/20 02:04:23;;;;;;;10.40;2.85;;;;;;;4.65;85.99;102696.13;4937885;28;20035;-73
2021/12/20 02:06:50;;;;;;;7.38;3.40;;;;;;;4.64;86.01;102689.19;4949446;28;20062;-73
2021/12/20 02:09:21;;;;;;;21.98;3.95;;;;;;;4.64;85.21;102685.69;4951954;28;20030;-73
2021/12/20 02:11:49;;;;;;;14.07;3.47;;;;;;;4.64;84.86;102689.19;4950393;28;20046;-73
2021/12/20 02:14:17;;;;;;;8.30;3.40;;;;;;;4.65;85.11;102697.88;4950004;28;20092;-73
2021/12/20 02:16:43;;;;;;;19.27;3.70;;;;;;;4.64;84.86;102693.47;4936063;28;20474;-73
2021/12/20 02:19:13;;;;;;;19.35;4.00;;;;;;;4.62;85.33;102696.00;4954815;28;20121;-73
2021/12/20 02:21:40;;;;;;;16.27;4.38;;;;;;;4.61;85.07;102695.94;4969362;28;20030;-73
2021/12/20 02:24:06;;;;;;;17.02;3.58;;;;;;;4.60;84.82;102702.88;4953924;28;20422;-71
2021/12/20 02:26:32;;;;;;;17.75;3.15;;;;;;;4.59;84.88;102695.00;4954153;28;20113;-71
2021/12/20 02:29:06;;;;;;;7.45;3.83;;;;;;;4.59;84.97;102693.28;4970637;28;20129;-72
2021/12/20 02:37:18;;;;;;;14.02;3.25;;;;;;;4.56;85.25;102681.91;4966144;28;20060;-71
2021/12/20 02:39:45;;;;;;;20.15;3.95;;;;;;;4.56;85.38;102684.50;4953255;28;20446;-71
2021/12/20 02:42:15;;;;;;;23.02;4.78;;;;;;;4.57;85.35;102692.34;4938617;28;20129;-72
2021/12/20 02:45:11;;;;;;;17.77;3.58;;;;;;;4.57;85.23;102686.25;4954207;28;20070;-73
2021/12/20 02:47:38;;;;;;;24.38;3.65;;;;;;;4.55;85.37;102682.72;4953055;28;20172;-70
2021/12/20 02:50:07;;;;;;;12.85;3.38;;;;;;;4.54;85.37;102683.53;4951765;28;20038;-71
2021/12/20 02:52:33;;;;;;;14.90;4.28;;;;;;;4.51;85.82;102690.38;4938134;28;20038;-71
2021/12/20 02:54:59;;;;;;;12.70;3.10;;;;;;;4.52;85.13;102688.66;4931139;28;20359;-71
2021/12/20 02:57:24;;;;;;;20.58;4.80;;;;;;;4.51;85.55;102687.78;4947566;28;20129;-71
2021/12/20 02:59:52;;;;;;;20.58;4.15;;;;;;;4.51;85.70;102680.00;4985891;28;20399;-70
2021/12/20 03:02:18;;;;;;;19.48;4.03;;;;;;;4.50;85.40;102675.63;4953566;28;20058;-72
2021/12/20 03:04:45;;;;;;;19.25;4.20;;;;;;;4.47;85.83;102680.69;4918331;28;20570;-71
2021/12/20 03:07:16;;;;;;;18.23;4.80;;;;;;;4.47;85.36;102685.88;4936939;28;20067;-71
2021/12/20 03:09:49;;;;;;;9.60;3.65;;;;;;;4.48;85.01;102686.75;4952166;28;20066;-72
2021/12/20 03:12:14;;;;;;;23.30;3.55;;;;;;;4.49;84.20;102693.72;4972573;28;20027;-71
2021/12/20 03:14:43;;;;;;;20.92;3.92;;;;;;;4.48;84.26;102689.34;4951923;28;20398;-71
2021/12/20 03:17:10;;;;;;;20.02;4.35;;;;;;;4.49;84.46;102694.59;4935130;28;20061;-70
2021/12/20 03:19:37;;;;;;;16.98;3.95;;;;;;;4.48;83.94;102686.75;4936042;28;20038;-71
2021/12/20 03:22:05;;;;;;;16.77;4.28;;;;;;;4.49;84.13;102683.34;4951120;28;20035;-70
2021/12/20 03:24:30;;;;;;;19.20;5.30;;;;;;;4.49;84.82;102683.34;4946761;28;20023;-71
2021/12/20 03:26:56;;;;;;;24.90;4.82;;;;;;;4.50;84.53;102683.41;4937078;29;20031;-70
2021/12/20 03:29:25;;;;;;;27.20;5.50;;;;;;;4.51;84.50;102673.91;4938313;28;20388;-71
2021/12/20 03:31:54;;;;;;;14.18;4.97;;;;;;;4.51;84.82;102686.88;4984698;28;20037;-71
2021/12/20 03:34:20;;;;;;;24.83;5.45;;;;;;;4.51;84.68;102690.38;4970064;28;20037;-71
2021/12/20 03:36:48;;;;;;;23.33;4.70;;;;;;;4.53;84.49;102680.06;4951873;28;20026;-71
2021/12/20 03:39:13;;;;;;;32.05;5.50;;;;;;;4.55;84.33;102677.53;4916453;28;20058;-71
2021/12/20 03:41:38;;;;;;;21.85;4.85;;;;;;;4.56;83.76;102690.56;4953235;28;20031;-71
2021/12/20 03:44:05;;;;;;;22.88;5.15;;;;;;;4.57;84.20;102689.75;4968720;28;20495;-71
2021/12/20 03:46:31;;;;;;;19.67;4.88;;;;;;;4.57;83.50;102684.56;4951901;28;20068;-71
2021/12/20 03:48:56;;;;;;;14.73;5.00;;;;;;;4.60;83.90;102681.22;4948551;28;20030;-71
2021/12/20 03:51:24;;;;;;;24.85;4.78;;;;;;;4.60;83.31;102681.22;4917852;28;20313;-73
2021/12/20 03:53:49;;;;;;;17.25;4.03;;;;;;;4.59;83.53;102676.84;4953365;28;20482;-71
2021/12/20 03:56:15;;;;;;;24.52;4.97;;;;;;;4.58;83.73;102683.72;4935874;28;20118;-71
2021/12/20 03:58:41;;;;;;;24.58;4.90;;;;;;;4.59;83.32;102679.44;4951127;28;20034;-71
2021/12/20 04:01:10;;;;;;;24.35;4.20;;;;;;;4.57;83.32;102686.25;4937397;28;20069;-71
2021/12/20 04:03:35;;;;;;;18.35;3.67;;;;;;;4.56;83.10;102681.91;4949989;28;20030;-71
2021/12/20 04:06:04;;;;;;;12.20;3.80;;;;;;;4.57;82.95;102675.88;4952818;28;20027;-72
2021/12/20 04:08:29;;;;;;;23.80;5.07;;;;;;;4.58;82.82;102677.66;4934501;29;20488;-71
2021/12/20 04:10:55;;;;;;;19.90;3.75;;;;;;;4.57;82.77;102668.97;4936326;28;20030;-71
2021/12/20 04:13:22;;;;;;;31.15;4.22;;;;;;;4.55;82.53;102674.94;4916790;29;20031;-72
2021/12/20 04:15:48;;;;;;;16.42;4.43;;;;;;;4.53;82.44;102669.66;4948169;28;20058;-72
2021/12/20 04:18:13;;;;;;;17.13;4.82;;;;;;;4.54;82.34;102678.34;4968395;28;20438;-72
2021/12/20 04:20:39;;;;;;;16.77;3.88;;;;;;;4.50;82.99;102675.63;4965059;28;20035;-72
2021/12/20 04:23:04;;;;;;;14.82;4.05;;;;;;;4.50;82.14;102674.75;4932659;28;20114;-72
2021/12/20 04:25:30;;;;;;;24.60;4.80;;;;;;;4.47;82.14;102680.69;4932940;28;20034;-72
2021/12/20 04:27:55;;;;;;;17.00;4.57;;;;;;;4.46;82.00;102678.91;4915304;28;20073;-72
2021/12/20 04:30:21;;;;;;;20.27;3.90;;;;;;;4.43;82.65;102675.28;4954605;28;20467;-72
2021/12/20 04:32:46;;;;;;;17.50;3.63;;;;;;;4.42;82.59;102681.31;4921191;28;20023;-72
2021/12/20 04:35:18;;;;;;;16.88;4.93;;;;;;;4.38;83.12;102676.78;4946814;28;20346;-72
2021/12/20 04:37:46;;;;;;;22.58;5.20;;;;;;;4.37;82.90;102681.09;4957439;28;20035;-72
2021/12/20 04:40:18;;;;;;;18.00;3.97;;;;;;;4.36;82.59;102679.31;4952886;28;20027;-72
2021/12/20 04:42:47;;;;;;;17.83;4.18;;;;;;;4.34;82.84;102668.88;4956868;28;20109;-72
2021/12/20 04:45:16;;;;;;;25.45;5.25;;;;;;;4.33;82.58;102671.41;4956254;28;20134;-71
2021/12/20 04:47:41;;;;;;;26.73;4.53;;;;;;;4.31;83.22;102673.03;4954599;28;20031;-71
2021/12/20 04:50:10;;;;;;;31.05;4.35;;;;;;;4.30;82.93;102682.53;4950036;28;20033;-71
2021/12/20 04:52:38;;;;;;;12.35;4.07;;;;;;;4.29;83.27;102679.88;4970435;28;20501;-71
2021/12/20 04:55:05;;;;;;;17.35;3.88;;;;;;;4.28;83.12;102684.19;4955863;28;20117;-71
2021/12/20 04:57:31;;;;;;;19.17;5.00;;;;;;;4.30;83.85;102689.44;4955504;28;20038;-71
2021/12/20 04:59:57;;;;;;;15.23;3.70;;;;;;;4.28;83.67;102680.69;4954616;28;20031;-71
2021/12/20 05:02:22;;;;;;;20.45;4.13;;;;;;;4.27;83.62;102685.00;4931411;28;20023;-71
2021/12/20 05:04:48;;;;;;;27.05;5.15;;;;;;;4.29;83.32;102679.88;4967625;28;20034;-71
2021/12/20 05:07:15;;;;;;;18.80;4.93;;;;;;;4.27;83.90;102685.00;4935500;28;20082;-71
2021/12/20 05:09:42;;;;;;;16.33;3.90;;;;;;;4.26;83.78;102680.63;4939627;28;20494;-71
2021/12/20 05:12:14;;;;;;;24.05;3.92;;;;;;;4.25;82.47;102678.88;4956622;28;20038;-71
2021/12/20 05:14:43;;;;;;;21.58;4.50;;;;;;;4.24;82.23;102689.16;4963442;28;20035;-71
2021/12/20 05:17:13;;;;;;;21.77;3.00;;;;;;;4.24;82.19;102694.34;4970756;28;20023;-71
2021/12/20 05:19:43;;;;;;;22.70;4.20;;;;;;;4.23;81.94;102685.69;4963893;28;20035;-71
2021/12/20 05:22:12;;;;;;;11.18;3.70;;;;;;;4.23;82.20;102688.28;4940409;28;20034;-70
2021/12/20 05:24:39;;;;;;;16.45;4.32;;;;;;;4.21;81.95;102683.84;4985868;28;20034;-70
2021/12/20 05:27:05;;;;;;;25.02;4.38;;;;;;;4.21;81.33;102686.44;4953319;28;20035;-71
2021/12/20 05:29:32;;;;;;;19.95;4.70;;;;;;;4.21;81.56;102691.63;4947408;28;20503;-72
2021/12/20 05:31:58;;;;;;;20.65;3.65;;;;;;;4.21;80.98;102689.94;4935622;28;20035;-70
2021/12/20 05:34:26;;;;;;;17.23;4.15;;;;;;;4.21;81.90;102691.63;4951077;28;20499;-72
2021/12/20 05:36:51;;;;;;;16.63;4.45;;;;;;;4.21;81.41;102696.81;4940111;28;20467;-73
2021/12/20 05:39:17;;;;;;;14.85;3.67;;;;;;;4.22;81.62;102694.28;4971790;28;20045;-70
2021/12/20 05:41:42;;;;;;;25.95;4.80;;;;;;;4.21;81.57;102702.00;4923938;28;20434;-71
2021/12/20 05:44:08;;;;;;;18.98;4.43;;;;;;;4.21;81.16;102697.72;4920289;28;20410;-71
2021/12/20 05:46:36;;;;;;;18.75;4.65;;;;;;;4.19;81.45;102688.09;4948983;28;20404;-73
2021/12/20 05:49:02;;;;;;;25.83;5.25;;;;;;;4.19;81.74;102698.47;4955960;28;20583;-72
2021/12/20 05:51:28;;;;;;;17.52;4.07;;;;;;;4.16;81.81;102694.91;4938067;28;20076;-73
2021/12/20 05:53:54;;;;;;;15.13;3.30;;;;;;;4.16;81.57;102692.31;4936396;29;20055;-73
2021/12/20 05:56:19;;;;;;;24.02;3.88;;;;;;;4.17;81.96;102693.22;4986158;28;20507;-73
2021/12/20 05:58:47;;;;;;;20.15;4.97;;;;;;;4.18;80.72;102699.28;4968694;28;20034;-72
2021/12/20 06:01:12;;;;;;;15.02;3.53;;;;;;;4.17;80.54;102701.00;4938983;28;20033;-73
2021/12/20 06:03:38;;;;;;;17.15;3.92;;;;;;;4.17;80.43;102695.81;4925003;28;20039;-73
2021/12/20 06:06:03;;;;;;;16.77;4.65;;;;;;;4.16;80.52;102692.31;4921148;29;20484;-73
2021/12/20 06:08:29;;;;;;;11.32;3.92;;;;;;;4.15;81.32;102687.06;4957850;28;20031;-72
2021/12/20 06:10:54;;;;;;;16.35;3.67;;;;;;;4.14;80.22;102696.56;4940488;28;20121;-72
2021/12/20 06:13:22;;;;;;;30.45;4.53;;;;;;;4.15;80.16;102693.16;4979855;28;20108;-72
2021/12/20 06:15:47;;;;;;;24.48;4.45;;;;;;;4.14;79.30;102701.75;4951968;28;20129;-72
2021/12/20 06:18:13;;;;;;;20.42;3.75;;;;;;;4.14;80.13;102706.94;4923083;28;20517;-72
2021/12/20 06:20:42;;;;;;;13.63;3.70;;;;;;;4.16;79.67;102704.41;4938019;28;20038;-72
2021/12/20 06:23:08;;;;;;;17.45;4.70;;;;;;;4.15;78.83;102703.53;4935938;28;20497;-71
2021/12/20 06:25:34;;;;;;;15.25;3.00;;;;;;;4.14;79.16;102706.06;4935660;28;20038;-72
2021/12/20 06:28:01;;;;;;;25.88;3.97;;;;;;;4.13;78.92;102715.53;4948390;28;20042;-71
2021/12/20 06:30:29;;;;;;;17.95;3.42;;;;;;;4.13;79.29;102709.47;4937363;28;20121;-72
2021/12/20 06:32:54;;;;;;;18.50;3.80;;;;;;;4.12;78.23;102713.78;4951836;28;20019;-72
2021/12/20 06:35:20;;;;;;;19.40;4.32;;;;;;;4.12;77.77;102706.00;4969785;28;20044;-72
2021/12/20 06:37:48;;;;;;;16.92;4.05;;;;;;;4.13;77.75;102705.16;4932270;28;20122;-72
2021/12/20 06:40:14;;;;;;;20.10;4.45;;;;;;;4.12;77.96;102708.59;4953855;28;20065;-72
2021/12/20 06:42:42;;;;;;;15.13;3.75;;;;;;;4.12;77.06;102703.41;4954355;28;20038;-72
2021/12/20 06:45:08;;;;;;;22.13;3.78;;;;;;;4.13;75.71;102710.34;4977401;28;20113;-73
2021/12/20 06:47:35;;;;;;;20.15;3.58;;;;;;;4.14;74.50;102712.13;4947235;28;20051;-73
2021/12/20 06:50:02;;;;;;;20.48;3.00;;;;;;;4.17;72.91;102716.56;4972341;28;20117;-72
2021/12/20 06:52:27;;;;;;;13.23;2.90;;;;;;;4.18;74.98;102717.44;4962920;28;20039;-73
2021/12/20 06:54:53;;;;;;;11.27;2.45;;;;;;;4.16;75.89;102722.56;4983061;28;20040;-73
2021/12/20 06:57:20;;;;;;;14.10;4.20;;;;;;;4.13;75.83;102725.91;4923679;28;20034;-72
2021/12/20 06:59:48;;;;;;;16.02;3.60;;;;;;;4.11;76.57;102726.69;4950296;28;20887;-73
2021/12/20 07:02:16;;;;;;;12.63;3.92;;;;;;;4.09;75.18;102726.59;4948406;28;20038;-72
2021/12/20 07:04:41;;;;;;;13.52;3.55;;;;;;;4.09;76.31;102723.97;4936087;28;20109;-72
2021/12/20 07:07:09;;;;;;;19.77;3.20;;;;;;;4.09;77.15;102733.50;4934342;28;20034;-72
2021/12/20 07:09:34;;;;;;;30.45;3.65;;;;;;;4.07;76.28;102730.81;4953095;28;20556;-72
2021/12/20 07:12:02;;;;;;;14.32;3.20;;;;;;;4.07;77.41;102733.41;4965464;28;20027;-72
2021/12/20 07:14:27;;;;;;;20.45;3.60;;;;;;;4.05;77.32;102726.38;4937647;28;20041;-72
2021/12/20 07:16:57;;;;;;;13.57;3.08;;;;;;;4.02;78.48;102727.13;4936395;28;20399;-72
2021/12/20 07:19:23;;;;;;;16.05;3.03;;;;;;;4.01;78.08;102733.16;4977805;28;20361;-72
2021/12/20 07:21:49;;;;;;;12.38;3.17;;;;;;;4.01;78.32;102734.84;4952843;28;20042;-72
2021/12/20 07:24:15;;;;;;;18.98;3.65;;;;;;;4.01;77.80;102729.66;4953879;28;20375;-72
2021/12/20 07:26:47;;;;;;;18.60;2.78;;;;;;;4.01;78.32;102735.75;4962262;28;20435;-73
2021/12/20 07:29:12;;;;;;;14.60;3.88;;;;;;;3.99;78.36;102733.09;4982135;28;20049;-72
2021/12/20 07:31:38;;;;;;;13.48;4.40;;;;;;;4.00;78.95;102739.16;4957356;28;20387;-71
2021/12/20 07:34:04;;;;;;;14.82;3.90;;;;;;;3.98;79.61;102735.63;4945880;28;20513;-71
2021/12/20 07:36:32;;;;;;;26.73;3.85;;;;;;;3.97;79.30;102731.22;4952666;28;20031;-71
2021/12/20 07:38:59;;;;;;;24.63;4.30;;;;;;;3.97;79.15;102741.59;4921385;28;20031;-71
2021/12/20 07:41:25;;;;;;;18.98;4.30;;;;;;;3.96;79.61;102743.28;4921983;28;20430;-71
2021/12/20 07:43:51;;;;;;;14.30;3.92;;;;;;;3.95;79.15;102744.13;4937797;28;20154;-71
2021/12/20 07:46:20;;;;;;;22.08;5.20;;;;;;;3.95;79.68;102735.44;4966640;28;20398;-71
2021/12/20 07:48:45;;;;;;;24.00;6.63;;;;;;;3.96;80.15;102734.63;4932216;28;20513;-71
2021/12/20 07:51:11;;;;;;;19.48;5.03;;;;;;;3.97;80.09;102726.91;4955780;28;20198;-71
2021/12/20 07:53:37;;;;;;;16.90;5.28;;;;;;;3.99;80.05;102737.38;4954202;28;20023;-71
2021/12/20 07:56:05;;;;;;;19.15;5.20;;;;;;;4.01;79.75;102748.72;4938602;28;20035;-71
2021/12/20 07:58:31;;;;;;;24.55;5.60;;;;;;;4.03;79.41;102744.47;4952614;28;20089;-71
2021/12/20 08:01:01;;;;;;;22.30;5.25;;;;;;;4.06;79.89;102735.94;4932903;28;20508;-71
2021/12/20 08:03:27;;;;;;;17.10;5.28;;;;;;;4.10;78.82;102745.66;4950767;28;20170;-72
2021/12/20 08:05:53;;;;;;;21.98;5.30;;;;;;;4.13;79.85;102740.59;4952730;28;20093;-71
2021/12/20 08:08:18;;;;;;;18.13;5.45;;;;;;;4.15;78.63;102744.13;4953695;28;20031;-71
2021/12/20 08:10:44;;;;;;;21.98;5.75;;;;;;;4.16;79.20;102744.19;4937919;28;20031;-72
2021/12/20 08:13:11;;;;;;;30.17;5.45;;;;;;;4.22;79.79;102745.31;4939414;28;20846;-71
2021/12/20 08:15:36;;;;;;;38.53;7.68;;;;;;;4.22;79.68;102741.00;4943597;28;20074;-72
2021/12/20 08:18:02;;;;;;;25.02;6.50;;;;;;;4.24;80.06;102749.75;4967762;28;20474;-71
2021/12/20 08:20:28;;;;;;;25.45;4.82;;;;;;;4.27;78.92;102754.22;4938863;28;20031;-72
2021/12/20 08:22:56;;;;;;;26.35;5.05;;;;;;;4.29;79.30;102748.25;4974418;28;21075;-71
2021/12/20 08:25:22;;;;;;;16.20;3.85;;;;;;;4.32;80.02;102752.69;4945011;28;20027;-72
2021/12/20 08:27:49;;;;;;;20.08;4.78;;;;;;;4.34;80.34;102757.13;4974385;28;20096;-71
2021/12/20 08:30:16;;;;;;;24.48;3.90;;;;;;;4.34;80.93;102757.13;4969009;28;20039;-71
2021/12/20 08:32:44;;;;;;;13.98;4.03;;;;;;;4.37;80.48;102758.97;4967485;28;20511;-71
2021/12/20 08:35:13;;;;;;;20.20;4.68;;;;;;;4.42;80.60;102759.19;4937554;28;20041;-71
2021/12/20 08:37:39;;;;;;;24.08;5.25;;;;;;;4.45;79.97;102764.50;4964498;28;20483;-71
2021/12/20 08:40:07;;;;;;;10.88;3.42;;;;;;;4.46;80.49;102761.09;4950103;28;20031;-72
2021/12/20 08:42:33;;;;;;;21.65;3.88;;;;;;;4.47;80.18;102758.56;4952786;28;20035;-72
2021/12/20 08:44:59;;;;;;;17.02;4.57;;;;;;;4.48;80.19;102765.53;4964854;28;20081;-72
2021/12/20 08:47:27;;;;;;;16.17;4.15;;;;;;;4.49;81.18;102762.09;4933452;28;20403;-71
2021/12/20 08:49:53;;;;;;;24.63;4.95;;;;;;;4.53;80.49;102763.16;4951707;28;20078;-72
2021/12/20 08:52:18;;;;;;;13.02;3.92;;;;;;;4.54;81.54;102757.13;4952240;28;20078;-71
2021/12/20 08:54:46;;;;;;;17.30;3.58;;;;;;;4.57;81.53;102765.06;4917800;29;20094;-72
2021/12/20 08:57:14;;;;;;;18.17;4.63;;;;;;;4.62;81.64;102760.06;4948653;28;20125;-72
2021/12/20 08:59:41;;;;;;;14.57;4.05;;;;;;;4.65;81.44;102767.97;4947208;28;20047;-72
2021/12/20 09:02:07;;;;;;;14.48;3.10;;;;;;;4.65;81.38;102763.66;4947534;28;20063;-72
2021/12/20 09:04:36;;;;;;;23.80;4.38;;;;;;;4.71;80.44;102763.03;4944710;28;20095;-72
2021/12/20 09:07:03;;;;;;;15.85;4.18;;;;;;;4.73;80.30;102764.00;4947587;28;20040;-71
2021/12/20 09:09:29;;;;;;;15.43;4.72;;;;;;;4.75;79.40;102772.75;4962171;28;20031;-71
2021/12/20 09:11:54;;;;;;;11.90;4.25;;;;;;;4.78;80.42;102765.06;4960203;28;20039;-71
2021/12/20 09:14:20;;;;;;;13.30;4.45;;;;;;;4.79;80.24;102764.28;4951164;28;20438;-71
2021/12/20 09:16:46;;;;;;;10.27;3.33;;;;;;;4.80;79.43;102766.06;4960840;28;20172;-71
2021/12/20 09:19:12;;;;;;;15.68;4.90;;;;;;;4.82;80.40;102767.00;4945690;28;20416;-71
2021/12/20 09:21:38;;;;;;;16.10;5.22;;;;;;;4.84;79.73;102770.56;4951092;28;20098;-72
2021/12/20 09:24:09;;;;;;;24.58;4.57;;;;;;;4.88;79.38;102776.75;4918740;28;20158;-71
2021/12/20 09:26:34;;;;;;;12.43;4.22;;;;;;;4.89;80.18;102777.66;4948984;28;20049;-72
2021/12/20 09:29:00;;;;;;;15.77;3.80;;;;;;;4.92;80.42;102775.19;4934458;29;20044;-71
2021/12/20 09:31:25;;;;;;;17.40;5.88;;;;;;;4.91;79.58;102782.06;4932347;28;20039;-71
2021/12/20 09:33:50;;;;;;;36.35;5.63;;;;;;;4.92;79.67;102778.66;4917307;29;20037;-71
2021/12/20 09:36:16;;;;;;;23.90;5.22;;;;;;;4.94;79.31;102790.03;4926530;28;20118;-71
2021/12/20 09:38:43;;;;;;;19.80;4.55;;;;;;;4.94;79.16;102783.94;4934644;28;20050;-72
2021/12/20 09:43:47;;;;;;;22.30;5.00;;;;;;;4.97;79.86;102795.34;4961732;28;20038;-72
2021/12/20 09:46:14;;;;;;;21.05;5.03;;;;;;;4.99;78.88;102798.03;4958174;28;20493;-71
2021/12/20 09:48:45;;;;;;;27.00;4.47;;;;;;;5.01;78.94;102798.97;4937947;28;20039;-71
2021/12/20 09:51:12;;;;;;;21.63;4.70;;;;;;;5.02;78.50;102796.41;4939431;28;20042;-71
2021/12/20 09:53:38;;;;;;;21.85;5.07;;;;;;;5.06;78.73;102801.75;4938689;28;20035;-71
2021/12/20 09:56:05;;;;;;;15.90;3.58;;;;;;;5.08;78.60;102795.78;4985445;28;20030;-71
2021/12/20 09:58:37;;;;;;;21.45;4.47;;;;;;;5.10;78.01;102795.84;4928290;28;20034;-71
2021/12/20 10:01:06;;;;;;;16.35;4.80;;;;;;;5.11;78.40;102801.13;4986361;28;20117;-71
2021/12/20 10:03:33;;;;;;;19.67;4.72;;;;;;;5.13;78.23;102796.88;4950611;28;20031;-71
2021/12/20 10:05:58;;;;;;;19.05;4.63;;;;;;;5.14;77.28;102798.69;4949812;28;20129;-71
2021/12/20 10:08:35;;;;;;;24.30;5.30;;;;;;;5.15;78.00;102797.81;4937074;28;20045;-71
2021/12/20 10:11:07;;;;;;;21.05;4.85;;;;;;;5.17;78.47;102804.00;4955698;28;20472;-71
2021/12/20 10:13:37;;;;;;;14.27;4.18;;;;;;;5.20;78.23;102804.13;4956542;28;20049;-71
2021/12/20 10:16:12;;;;;;;28.70;5.15;;;;;;;5.23;77.93;102805.06;4955055;28;20041;-71
2021/12/20 10:18:38;;;;;;;16.95;3.75;;;;;;;5.22;77.09;102798.97;4955079;28;20041;-71
2021/12/20 10:21:04;;;;;;;22.15;5.25;;;;;;;5.25;77.98;102803.44;4970506;28;20026;-71
2021/12/20 10:23:32;;;;;;;15.43;4.00;;;;;;;5.28;78.71;102803.56;4923715;28;20450;-71
2021/12/20 10:26:09;;;;;;;17.27;4.35;;;;;;;5.33;78.09;102799.41;4954957;28;20061;-71
2021/12/20 10:28:37;;;;;;;27.83;6.05;;;;;;;5.38;78.52;102797.91;4950785;28;20077;-71
2021/12/20 10:31:22;;;;;;;16.75;4.10;;;;;;;5.38;75.97;102805.69;4954259;28;20031;-71
2021/12/20 10:33:57;;;;;;;18.55;3.53;;;;;;;5.45;77.51;102799.06;4952424;28;20482;-71
2021/12/20 10:36:23;;;;;;;20.38;3.80;;;;;;;5.44;76.17;102800.75;4952108;28;20046;-71
2021/12/20 10:38:56;;;;;;;21.73;3.72;;;;;;;5.51;76.84;102800.16;4952922;28;20023;-71
2021/12/20 10:41:35;;;;;;;18.17;4.53;;;;;;;5.55;75.55;102799.47;4953080;28;20026;-71
2021/12/20 10:44:16;;;;;;;22.88;4.68;;;;;;;5.67;76.80;102793.00;4946904;28;20049;-71
2021/12/20 10:46:50;;;;;;;18.38;4.72;;;;;;;5.89;77.01;102799.94;4944616;28;20034;-71
2021/12/20 10:49:18;;;;;;;14.32;4.13;;;;;;;6.39;76.24;102801.00;4948663;28;20057;-71
2021/12/20 10:51:44;;;;;;;28.23;4.80;;;;;;;6.90;73.75;102804.53;4964312;28;20039;-71
2021/12/20 10:54:15;;;;;;;13.63;4.43;;;;;;;8.91;75.03;102793.31;4974613;28;20141;-71
2021/12/20 10:56:51;;;;;;;26.58;4.20;;;;;;;11.74;68.20;102801.75;4950431;28;20035;-71
2021/12/20 10:59:21;;;;;;;22.77;5.13;;;;;;;14.18;60.86;102793.63;4961924;28;20031;-71
2021/12/20 11:04:25;;;;;;;20.73;4.28;;;;;;;17.39;56.31;102792.06;4952213;28;20035;-72
2021/12/20 11:09:55;;;;;;;13.35;4.28;;;;;;;19.34;44.04;102793.09;4948655;28;20489;-72
2021/12/20 11:12:26;;;;;;;9.70;3.17;;;;;;;20.38;44.78;102790.16;4948900;28;20023;-71
2021/12/20 11:14:55;;;;;;;15.23;3.97;;;;;;;19.80;37.73;102791.41;4950040;28;20050;-71
2021/12/20 11:17:23;;;;;;;12.23;3.83;;;;;;;19.87;39.18;102795.69;4948603;28;20030;-71
2021/12/20 11:19:54;;;;;;;13.73;3.78;;;;;;;20.52;39.50;102791.66;4963439;28;20487;-71
2021/12/20 11:22:24;;;;;;;13.02;3.83;;;;;;;21.61;36.67;102788.97;4963567;28;20186;-71
2021/12/20 11:24:55;;;;;;;17.35;4.18;;;;;;;22.47;32.90;102785.63;4943381;28;20069;-71
2021/12/20 11:27:22;;;;;;;18.02;4.50;;;;;;;23.05;33.42;102784.66;4944309;28;20547;-71
2021/12/20 11:29:50;;;;;;;19.13;4.82;;;;;;;23.84;32.97;102788.16;4948303;28;20038;-71
2021/12/20 11:32:17;;;;;;;14.05;4.10;;;;;;;24.26;29.66;102791.97;4942195;28;20031;-71
2021/12/20 11:34:44;;;;;;;9.25;3.35;;;;;;;24.77;30.74;102779.25;4957982;28;20089;-71
2021/12/20 11:37:12;;;;;;;16.80;3.83;;;;;;;24.42;30.29;102781.50;4944273;28;20065;-71
2021/12/20 11:39:38;;;;;;;13.90;3.65;;;;;;;24.44;28.81;102781.44;4947970;28;20499;-71
2021/12/20 11:42:06;;;;;;;13.50;3.92;;;;;;;24.73;30.30;102777.63;4921657;28;20036;-72